sensor_id;sensor_type;location;lat;lon;timestamp;P1;durP1;ratioP1;P2;durP2;ratioP2
75494;SDS011;64072;51.466;7.260;2022-10-18T00:01:24;5.57;;;2.60;;
75494;SDS011;64072;51.466;7.260;2022-10-18T00:03:50;5.18;;;2.50;;
75494;SDS011;64072;51.466;7.260;2022-10-18T00:06:16;5.75;;;2.63;;
75494;SDS011;64072;51.466;7.260;2022-10-18T00:08:41;5.88;;;2.85;;
75494;SDS011;64072;51.466;7.260;2022-10-18T00:11:07;5.53;;;2.33;;
75494;SDS011;64072;51.466;7.260;2022-10-18T00:13:32;4.50;;;2.40;;
75494;SDS011;64072;51.466;7.260;2022-10-18T00:15:59;5.65;;;2.35;;
75494;SDS011;64072;51.466;7.260;2022-10-18T00:18:26;5.20;;;2.50;;
75494;SDS011;64072;51.466;7.260;2022-10-18T00:20:59;5.15;;;2.40;;
75494;SDS011;64072;51.466;7.260;2022-10-18T00:23:31;4.57;;;2.35;;
75494;SDS011;64072;51.466;7.260;2022-10-18T00:25:59;4.90;;;2.40;;
75494;SDS011;64072;51.466;7.260;2022-10-18T00:28:25;5.90;;;2.60;;
75494;SDS011;64072;51.466;7.260;2022-10-18T00:30:50;5.07;;;2.45;;
75494;SDS011;64072;51.466;7.260;2022-10-18T00:33:16;4.47;;;2.22;;
75494;SDS011;64072;51.466;7.260;2022-10-18T00:35:41;5.28;;;2.50;;
75494;SDS011;64072;51.466;7.260;2022-10-18T00:38:07;4.90;;;2.33;;
75494;SDS011;64072;51.466;7.260;2022-10-18T00:40:32;5.60;;;2.50;;
75494;SDS011;64072;51.466;7.260;2022-10-18T00:42:58;4.65;;;2.30;;
75494;SDS011;64072;51.466;7.260;2022-10-18T00:45:24;5.20;;;2.50;;
75494;SDS011;64072;51.466;7.260;2022-10-18T00:47:54;5.57;;;2.50;;
75494;SDS011;64072;51.466;7.260;2022-10-18T00:50:24;5.40;;;2.42;;
75494;SDS011;64072;51.466;7.260;2022-10-18T00:52:53;5.28;;;2.60;;
75494;SDS011;64072;51.466;7.260;2022-10-18T00:55:25;5.03;;;2.40;;
75494;SDS011;64072;51.466;7.260;2022-10-18T00:57:51;4.28;;;2.20;;
75494;SDS011;64072;51.466;7.260;2022-10-18T01:00:18;4.75;;;2.30;;
75494;SDS011;64072;51.466;7.260;2022-10-18T01:02:44;5.05;;;2.33;;
75494;SDS011;64072;51.466;7.260;2022-10-18T01:05:11;5.05;;;2.42;;
75494;SDS011;64072;51.466;7.260;2022-10-18T01:07:49;5.47;;;2.55;;
75494;SDS011;64072;51.466;7.260;2022-10-18T01:13:02;5.20;;;2.67;;
75494;SDS011;64072;51.466;7.260;2022-10-18T01:18:32;4.72;;;2.30;;
75494;SDS011;64072;51.466;7.260;2022-10-18T01:32:26;4.97;;;2.30;;
75494;SDS011;64072;51.466;7.260;2022-10-18T01:35:01;5.07;;;2.30;;
75494;SDS011;64072;51.466;7.260;2022-10-18T01:37:31;5.53;;;2.30;;
75494;SDS011;64072;51.466;7.260;2022-10-18T01:39:58;4.90;;;2.45;;
75494;SDS011;64072;51.466;7.260;2022-10-18T01:42:27;5.68;;;2.50;;
75494;SDS011;64072;51.466;7.260;2022-10-18T01:44:53;5.00;;;2.47;;
75494;SDS011;64072;51.466;7.260;2022-10-18T01:47:20;4.85;;;2.30;;
75494;SDS011;64072;51.466;7.260;2022-10-18T01:49:46;4.68;;;2.20;;
75494;SDS011;64072;51.466;7.260;2022-10-18T01:52:13;4.70;;;2.20;;
75494;SDS011;64072;51.466;7.260;2022-10-18T01:54:41;5.50;;;2.35;;
75494;SDS011;64072;51.466;7.260;2022-10-18T02:02:37;5.28;;;2.40;;
75494;SDS011;64072;51.466;7.260;2022-10-18T02:05:29;5.38;;;2.35;;
75494;SDS011;64072;51.466;7.260;2022-10-18T02:08:10;5.32;;;2.40;;
75494;SDS011;64072;51.466;7.260;2022-10-18T02:13:14;5.22;;;2.20;;
75494;SDS011;64072;51.466;7.260;2022-10-18T02:15:43;5.07;;;2.40;;
75494;SDS011;64072;51.466;7.260;2022-10-18T02:18:15;5.00;;;2.40;;
75494;SDS011;64072;51.466;7.260;2022-10-18T02:20:44;4.75;;;2.42;;
75494;SDS011;64072;51.466;7.260;2022-10-18T02:23:12;4.78;;;2.22;;
75494;SDS011;64072;51.466;7.260;2022-10-18T02:25:38;5.10;;;2.10;;
75494;SDS011;64072;51.466;7.260;2022-10-18T02:28:04;5.13;;;2.35;;
75494;SDS011;64072;51.466;7.260;2022-10-18T02:30:32;5.20;;;2.15;;
75494;SDS011;64072;51.466;7.260;2022-10-18T02:33:12;5.38;;;2.45;;
75494;SDS011;64072;51.466;7.260;2022-10-18T02:35:43;4.60;;;2.30;;
75494;SDS011;64072;51.466;7.260;2022-10-18T02:38:11;5.18;;;2.30;;
75494;SDS011;64072;51.466;7.260;2022-10-18T02:40:40;5.07;;;2.22;;
75494;SDS011;64072;51.466;7.260;2022-10-18T02:43:05;5.85;;;2.40;;
75494;SDS011;64072;51.466;7.260;2022-10-18T02:45:31;5.15;;;2.50;;
75494;SDS011;64072;51.466;7.260;2022-10-18T02:47:57;4.93;;;2.25;;
75494;SDS011;64072;51.466;7.260;2022-10-18T02:50:23;6.03;;;2.40;;
75494;SDS011;64072;51.466;7.260;2022-10-18T02:52:48;5.38;;;2.50;;
75494;SDS011;64072;51.466;7.260;2022-10-18T02:55:14;5.10;;;2.35;;
75494;SDS011;64072;51.466;7.260;2022-10-18T02:57:39;5.13;;;2.40;;
75494;SDS011;64072;51.466;7.260;2022-10-18T03:00:05;5.20;;;2.55;;
75494;SDS011;64072;51.466;7.260;2022-10-18T03:02:32;5.00;;;2.45;;
75494;SDS011;64072;51.466;7.260;2022-10-18T03:04:57;5.43;;;2.58;;
75494;SDS011;64072;51.466;7.260;2022-10-18T03:07:23;4.70;;;2.30;;
75494;SDS011;64072;51.466;7.260;2022-10-18T03:09:48;4.88;;;2.40;;
75494;SDS011;64072;51.466;7.260;2022-10-18T03:12:14;4.78;;;2.30;;
75494;SDS011;64072;51.466;7.260;2022-10-18T03:14:40;5.18;;;2.38;;
75494;SDS011;64072;51.466;7.260;2022-10-18T03:17:06;4.60;;;2.17;;
75494;SDS011;64072;51.466;7.260;2022-10-18T03:19:32;4.72;;;2.13;;
75494;SDS011;64072;51.466;7.260;2022-10-18T03:21:57;5.38;;;2.35;;
75494;SDS011;64072;51.466;7.260;2022-10-18T03:24:23;5.38;;;2.40;;
75494;SDS011;64072;51.466;7.260;2022-10-18T03:26:48;4.82;;;2.25;;
75494;SDS011;64072;51.466;7.260;2022-10-18T03:29:14;4.90;;;2.20;;
75494;SDS011;64072;51.466;7.260;2022-10-18T03:31:39;4.80;;;2.20;;
75494;SDS011;64072;51.466;7.260;2022-10-18T03:34:05;4.57;;;2.10;;
75494;SDS011;64072;51.466;7.260;2022-10-18T03:36:30;4.80;;;2.40;;
75494;SDS011;64072;51.466;7.260;2022-10-18T03:38:57;4.90;;;2.15;;
75494;SDS011;64072;51.466;7.260;2022-10-18T03:41:23;4.85;;;2.20;;
75494;SDS011;64072;51.466;7.260;2022-10-18T03:43:49;5.43;;;2.35;;
75494;SDS011;64072;51.466;7.260;2022-10-18T03:46:14;4.45;;;2.10;;
75494;SDS011;64072;51.466;7.260;2022-10-18T03:48:40;4.68;;;2.20;;
75494;SDS011;64072;51.466;7.260;2022-10-18T03:51:05;4.43;;;2.13;;
75494;SDS011;64072;51.466;7.260;2022-10-18T03:53:31;5.05;;;2.30;;
75494;SDS011;64072;51.466;7.260;2022-10-18T03:55:56;4.47;;;2.17;;
75494;SDS011;64072;51.466;7.260;2022-10-18T03:58:22;4.80;;;2.10;;
75494;SDS011;64072;51.466;7.260;2022-10-18T04:00:49;4.60;;;2.28;;
75494;SDS011;64072;51.466;7.260;2022-10-18T04:03:18;4.63;;;2.15;;
75494;SDS011;64072;51.466;7.260;2022-10-18T04:05:45;5.25;;;2.15;;
75494;SDS011;64072;51.466;7.260;2022-10-18T04:08:12;4.93;;;2.30;;
75494;SDS011;64072;51.466;7.260;2022-10-18T04:10:38;4.82;;;1.88;;
75494;SDS011;64072;51.466;7.260;2022-10-18T04:13:04;4.80;;;2.05;;
75494;SDS011;64072;51.466;7.260;2022-10-18T04:15:30;5.40;;;2.25;;
75494;SDS011;64072;51.466;7.260;2022-10-18T04:17:55;5.22;;;2.30;;
75494;SDS011;64072;51.466;7.260;2022-10-18T04:20:22;5.95;;;2.22;;
75494;SDS011;64072;51.466;7.260;2022-10-18T04:22:48;4.50;;;2.08;;
75494;SDS011;64072;51.466;7.260;2022-10-18T04:25:15;5.00;;;2.30;;
75494;SDS011;64072;51.466;7.260;2022-10-18T04:27:40;4.97;;;2.10;;
75494;SDS011;64072;51.466;7.260;2022-10-18T04:30:06;4.60;;;2.10;;
75494;SDS011;64072;51.466;7.260;2022-10-18T04:32:32;4.70;;;2.15;;
75494;SDS011;64072;51.466;7.260;2022-10-18T04:34:59;5.00;;;2.30;;
75494;SDS011;64072;51.466;7.260;2022-10-18T04:37:28;4.60;;;1.98;;
75494;SDS011;64072;51.466;7.260;2022-10-18T04:39:54;5.00;;;2.03;;
75494;SDS011;64072;51.466;7.260;2022-10-18T04:42:20;5.32;;;2.20;;
75494;SDS011;64072;51.466;7.260;2022-10-18T04:44:45;4.60;;;2.03;;
75494;SDS011;64072;51.466;7.260;2022-10-18T04:47:11;4.10;;;2.05;;
75494;SDS011;64072;51.466;7.260;2022-10-18T04:49:37;4.50;;;2.10;;
75494;SDS011;64072;51.466;7.260;2022-10-18T04:52:02;4.80;;;2.20;;
75494;SDS011;64072;51.466;7.260;2022-10-18T04:54:28;5.45;;;2.00;;
75494;SDS011;64072;51.466;7.260;2022-10-18T04:56:54;5.38;;;1.95;;
75494;SDS011;64072;51.466;7.260;2022-10-18T04:59:19;5.70;;;2.10;;
75494;SDS011;64072;51.466;7.260;2022-10-18T05:01:45;5.57;;;2.20;;
75494;SDS011;64072;51.466;7.260;2022-10-18T05:04:11;5.05;;;2.22;;
75494;SDS011;64072;51.466;7.260;2022-10-18T05:06:36;4.82;;;2.13;;
75494;SDS011;64072;51.466;7.260;2022-10-18T05:09:02;4.78;;;2.10;;
75494;SDS011;64072;51.466;7.260;2022-10-18T05:11:28;5.43;;;2.25;;
75494;SDS011;64072;51.466;7.260;2022-10-18T05:13:56;5.07;;;2.28;;
75494;SDS011;64072;51.466;7.260;2022-10-18T05:16:22;4.25;;;2.00;;
75494;SDS011;64072;51.466;7.260;2022-10-18T05:18:47;4.60;;;2.10;;
75494;SDS011;64072;51.466;7.260;2022-10-18T05:21:13;4.35;;;1.90;;
75494;SDS011;64072;51.466;7.260;2022-10-18T05:23:38;5.53;;;2.05;;
75494;SDS011;64072;51.466;7.260;2022-10-18T05:26:04;4.80;;;1.90;;
75494;SDS011;64072;51.466;7.260;2022-10-18T05:28:31;5.65;;;1.80;;
75494;SDS011;64072;51.466;7.260;2022-10-18T05:31:01;4.68;;;1.95;;
75494;SDS011;64072;51.466;7.260;2022-10-18T05:33:30;5.18;;;2.00;;
75494;SDS011;64072;51.466;7.260;2022-10-18T05:35:56;4.25;;;1.73;;
75494;SDS011;64072;51.466;7.260;2022-10-18T05:38:22;4.32;;;1.90;;
75494;SDS011;64072;51.466;7.260;2022-10-18T05:40:48;4.60;;;1.88;;
75494;SDS011;64072;51.466;7.260;2022-10-18T05:43:13;4.40;;;1.77;;
75494;SDS011;64072;51.466;7.260;2022-10-18T05:45:39;4.47;;;1.90;;
75494;SDS011;64072;51.466;7.260;2022-10-18T05:48:11;4.43;;;1.80;;
75494;SDS011;64072;51.466;7.260;2022-10-18T05:50:37;4.50;;;1.73;;
75494;SDS011;64072;51.466;7.260;2022-10-18T05:53:02;4.30;;;1.80;;
75494;SDS011;64072;51.466;7.260;2022-10-18T05:55:28;4.32;;;1.70;;
75494;SDS011;64072;51.466;7.260;2022-10-18T05:57:56;4.10;;;1.70;;
75494;SDS011;64072;51.466;7.260;2022-10-18T06:00:22;4.70;;;1.65;;
75494;SDS011;64072;51.466;7.260;2022-10-18T06:02:47;4.68;;;1.83;;
75494;SDS011;64072;51.466;7.260;2022-10-18T06:05:13;4.00;;;1.60;;
75494;SDS011;64072;51.466;7.260;2022-10-18T06:07:38;4.10;;;1.70;;
75494;SDS011;64072;51.466;7.260;2022-10-18T06:10:04;4.05;;;1.80;;
75494;SDS011;64072;51.466;7.260;2022-10-18T06:12:30;4.60;;;1.70;;
75494;SDS011;64072;51.466;7.260;2022-10-18T06:14:55;3.95;;;1.60;;
75494;SDS011;64072;51.466;7.260;2022-10-18T06:17:21;3.42;;;1.45;;
75494;SDS011;64072;51.466;7.260;2022-10-18T06:19:46;4.03;;;1.45;;
75494;SDS011;64072;51.466;7.260;2022-10-18T06:22:12;4.10;;;1.50;;
75494;SDS011;64072;51.466;7.260;2022-10-18T06:24:38;4.25;;;1.80;;
75494;SDS011;64072;51.466;7.260;2022-10-18T06:27:03;4.20;;;1.70;;
75494;SDS011;64072;51.466;7.260;2022-10-18T06:29:35;5.13;;;1.70;;
75494;SDS011;64072;51.466;7.260;2022-10-18T06:32:02;4.20;;;1.70;;
75494;SDS011;64072;51.466;7.260;2022-10-18T06:34:28;3.70;;;1.50;;
75494;SDS011;64072;51.466;7.260;2022-10-18T06:36:54;4.05;;;1.60;;
75494;SDS011;64072;51.466;7.260;2022-10-18T06:39:19;4.28;;;1.65;;
75494;SDS011;64072;51.466;7.260;2022-10-18T06:41:45;3.97;;;1.80;;
75494;SDS011;64072;51.466;7.260;2022-10-18T06:44:10;4.47;;;1.60;;
75494;SDS011;64072;51.466;7.260;2022-10-18T06:46:39;4.50;;;1.80;;
75494;SDS011;64072;51.466;7.260;2022-10-18T06:49:06;4.13;;;1.60;;
75494;SDS011;64072;51.466;7.260;2022-10-18T06:51:32;4.30;;;1.98;;
75494;SDS011;64072;51.466;7.260;2022-10-18T06:53:57;3.95;;;1.63;;
75494;SDS011;64072;51.466;7.260;2022-10-18T06:56:23;4.07;;;1.55;;
75494;SDS011;64072;51.466;7.260;2022-10-18T06:58:48;4.80;;;1.85;;
75494;SDS011;64072;51.466;7.260;2022-10-18T07:01:15;4.18;;;1.60;;
75494;SDS011;64072;51.466;7.260;2022-10-18T07:03:41;4.78;;;1.60;;
75494;SDS011;64072;51.466;7.260;2022-10-18T07:06:08;4.90;;;1.90;;
75494;SDS011;64072;51.466;7.260;2022-10-18T07:08:35;4.20;;;1.88;;
75494;SDS011;64072;51.466;7.260;2022-10-18T07:11:02;4.30;;;1.70;;
75494;SDS011;64072;51.466;7.260;2022-10-18T07:13:29;4.05;;;1.50;;
75494;SDS011;64072;51.466;7.260;2022-10-18T07:16:03;4.00;;;1.65;;
75494;SDS011;64072;51.466;7.260;2022-10-18T07:18:34;5.18;;;1.80;;
75494;SDS011;64072;51.466;7.260;2022-10-18T07:21:04;4.25;;;1.85;;
75494;SDS011;64072;51.466;7.260;2022-10-18T07:23:35;4.00;;;1.60;;
75494;SDS011;64072;51.466;7.260;2022-10-18T07:26:02;4.22;;;1.73;;
75494;SDS011;64072;51.466;7.260;2022-10-18T07:28:35;4.60;;;1.77;;
75494;SDS011;64072;51.466;7.260;2022-10-18T07:31:05;4.15;;;1.73;;
75494;SDS011;64072;51.466;7.260;2022-10-18T07:33:36;3.80;;;1.70;;
75494;SDS011;64072;51.466;7.260;2022-10-18T07:36:03;4.65;;;1.67;;
75494;SDS011;64072;51.466;7.260;2022-10-18T07:38:32;3.78;;;1.40;;
75494;SDS011;64072;51.466;7.260;2022-10-18T07:40:59;3.88;;;1.60;;
75494;SDS011;64072;51.466;7.260;2022-10-18T07:43:25;5.03;;;1.85;;
75494;SDS011;64072;51.466;7.260;2022-10-18T07:45:53;6.88;;;2.13;;
75494;SDS011;64072;51.466;7.260;2022-10-18T07:48:19;4.50;;;2.10;;
75494;SDS011;64072;51.466;7.260;2022-10-18T07:50:45;4.95;;;1.90;;
75494;SDS011;64072;51.466;7.260;2022-10-18T07:53:11;4.10;;;1.77;;
75494;SDS011;64072;51.466;7.260;2022-10-18T07:55:36;4.60;;;1.90;;
75494;SDS011;64072;51.466;7.260;2022-10-18T07:58:02;4.55;;;1.88;;
75494;SDS011;64072;51.466;7.260;2022-10-18T08:00:27;4.30;;;1.80;;
75494;SDS011;64072;51.466;7.260;2022-10-18T08:02:56;4.72;;;1.75;;
75494;SDS011;64072;51.466;7.260;2022-10-18T08:05:23;4.32;;;1.70;;
75494;SDS011;64072;51.466;7.260;2022-10-18T08:07:50;5.63;;;2.00;;
75494;SDS011;64072;51.466;7.260;2022-10-18T08:10:16;4.60;;;2.00;;
75494;SDS011;64072;51.466;7.260;2022-10-18T08:12:42;4.70;;;1.90;;
75494;SDS011;64072;51.466;7.260;2022-10-18T08:15:08;4.65;;;2.20;;
75494;SDS011;64072;51.466;7.260;2022-10-18T08:17:33;5.15;;;2.50;;
75494;SDS011;64072;51.466;7.260;2022-10-18T08:19:59;4.70;;;2.20;;
75494;SDS011;64072;51.466;7.260;2022-10-18T08:22:24;5.28;;;2.10;;
75494;SDS011;64072;51.466;7.260;2022-10-18T08:24:50;4.70;;;1.98;;
75494;SDS011;64072;51.466;7.260;2022-10-18T08:27:16;5.15;;;2.17;;
75494;SDS011;64072;51.466;7.260;2022-10-18T08:29:41;6.63;;;2.30;;
75494;SDS011;64072;51.466;7.260;2022-10-18T08:32:07;5.35;;;2.38;;
75494;SDS011;64072;51.466;7.260;2022-10-18T08:34:33;5.47;;;2.50;;
75494;SDS011;64072;51.466;7.260;2022-10-18T08:37:02;5.05;;;2.50;;
75494;SDS011;64072;51.466;7.260;2022-10-18T08:39:27;5.00;;;2.28;;
75494;SDS011;64072;51.466;7.260;2022-10-18T08:44:58;6.25;;;2.65;;
75494;SDS011;64072;51.466;7.260;2022-10-18T08:47:32;5.90;;;2.70;;
75494;SDS011;64072;51.466;7.260;2022-10-18T08:50:04;5.97;;;2.70;;
75494;SDS011;64072;51.466;7.260;2022-10-18T08:52:42;5.72;;;2.42;;
75494;SDS011;64072;51.466;7.260;2022-10-18T08:55:33;5.63;;;2.80;;
75494;SDS011;64072;51.466;7.260;2022-10-18T08:58:23;5.70;;;2.75;;
75494;SDS011;64072;51.466;7.260;2022-10-18T09:01:05;5.45;;;2.78;;
75494;SDS011;64072;51.466;7.260;2022-10-18T09:14:47;6.22;;;2.72;;
75494;SDS011;64072;51.466;7.260;2022-10-18T09:20:21;5.78;;;2.80;;
75494;SDS011;64072;51.466;7.260;2022-10-18T09:23:04;7.20;;;2.80;;
75494;SDS011;64072;51.466;7.260;2022-10-18T09:36:22;8.63;;;3.35;;
75494;SDS011;64072;51.466;7.260;2022-10-18T09:38:52;9.40;;;3.80;;
75494;SDS011;64072;51.466;7.260;2022-10-18T09:41:24;9.27;;;3.55;;
75494;SDS011;64072;51.466;7.260;2022-10-18T09:44:29;6.63;;;3.58;;
75494;SDS011;64072;51.466;7.260;2022-10-18T09:46:50;6.55;;;3.20;;
75494;SDS011;64072;51.466;7.260;2022-10-18T09:49:22;6.83;;;3.60;;
75494;SDS011;64072;51.466;7.260;2022-10-18T09:51:52;7.60;;;3.90;;
75494;SDS011;64072;51.466;7.260;2022-10-18T09:54:34;6.72;;;3.70;;
75494;SDS011;64072;51.466;7.260;2022-10-18T09:57:18;6.25;;;3.28;;
75494;SDS011;64072;51.466;7.260;2022-10-18T09:59:56;7.20;;;3.55;;
75494;SDS011;64072;51.466;7.260;2022-10-18T10:02:24;8.38;;;3.92;;
75494;SDS011;64072;51.466;7.260;2022-10-18T10:04:49;10.90;;;4.10;;
75494;SDS011;64072;51.466;7.260;2022-10-18T10:07:19;6.97;;;4.00;;
75494;SDS011;64072;51.466;7.260;2022-10-18T10:09:49;7.07;;;4.05;;
75494;SDS011;64072;51.466;7.260;2022-10-18T10:12:24;7.53;;;3.80;;
75494;SDS011;64072;51.466;7.260;2022-10-18T10:14:53;7.25;;;4.47;;
75494;SDS011;64072;51.466;7.260;2022-10-18T10:17:30;7.18;;;3.83;;
75494;SDS011;64072;51.466;7.260;2022-10-18T10:22:43;7.60;;;3.90;;
75494;SDS011;64072;51.466;7.260;2022-10-18T10:25:30;6.55;;;3.75;;
75494;SDS011;64072;51.466;7.260;2022-10-18T10:28:02;9.05;;;3.85;;
75494;SDS011;64072;51.466;7.260;2022-10-18T10:30:34;6.60;;;3.85;;
75494;SDS011;64072;51.466;7.260;2022-10-18T10:33:01;7.15;;;3.63;;
75494;SDS011;64072;51.466;7.260;2022-10-18T10:37:54;7.10;;;4.07;;
75494;SDS011;64072;51.466;7.260;2022-10-18T10:40:21;7.78;;;4.05;;
75494;SDS011;64072;51.466;7.260;2022-10-18T10:42:50;8.00;;;4.00;;
75494;SDS011;64072;51.466;7.260;2022-10-18T10:45:20;8.60;;;3.80;;
75494;SDS011;64072;51.466;7.260;2022-10-18T10:47:48;6.65;;;3.85;;
75494;SDS011;64072;51.466;7.260;2022-10-18T10:50:20;7.60;;;4.40;;
75494;SDS011;64072;51.466;7.260;2022-10-18T10:52:48;8.27;;;4.30;;
75494;SDS011;64072;51.466;7.260;2022-10-18T10:55:15;7.95;;;4.53;;
75494;SDS011;64072;51.466;7.260;2022-10-18T10:57:45;7.07;;;4.30;;
75494;SDS011;64072;51.466;7.260;2022-10-18T11:00:33;8.63;;;4.85;;
75494;SDS011;64072;51.466;7.260;2022-10-18T11:03:15;7.03;;;4.18;;
75494;SDS011;64072;51.466;7.260;2022-10-18T11:08:10;7.55;;;4.32;;
75494;SDS011;64072;51.466;7.260;2022-10-18T11:10:43;10.05;;;4.28;;
75494;SDS011;64072;51.466;7.260;2022-10-18T11:16:16;8.23;;;4.95;;
75494;SDS011;64072;51.466;7.260;2022-10-18T11:18:48;7.78;;;4.43;;
75494;SDS011;64072;51.466;7.260;2022-10-18T11:21:22;7.97;;;4.50;;
75494;SDS011;64072;51.466;7.260;2022-10-18T11:23:51;7.60;;;4.88;;
75494;SDS011;64072;51.466;7.260;2022-10-18T11:29:15;8.10;;;4.95;;
75494;SDS011;64072;51.466;7.260;2022-10-18T11:34:47;8.07;;;4.53;;
75494;SDS011;64072;51.466;7.260;2022-10-18T11:37:33;8.48;;;4.90;;
75494;SDS011;64072;51.466;7.260;2022-10-18T11:45:50;8.52;;;4.68;;
75494;SDS011;64072;51.466;7.260;2022-10-18T11:59:36;14.45;;;8.95;;
75494;SDS011;64072;51.466;7.260;2022-10-18T12:02:18;10.52;;;7.20;;
75494;SDS011;64072;51.466;7.260;2022-10-18T12:04:57;14.27;;;6.13;;
75494;SDS011;64072;51.466;7.260;2022-10-18T12:07:28;9.13;;;5.95;;
75494;SDS011;64072;51.466;7.260;2022-10-18T12:09:58;9.75;;;6.35;;
75494;SDS011;64072;51.466;7.260;2022-10-18T12:12:32;11.68;;;6.65;;
75494;SDS011;64072;51.466;7.260;2022-10-18T12:15:05;17.02;;;9.43;;
75494;SDS011;64072;51.466;7.260;2022-10-18T12:17:40;14.75;;;8.88;;
75494;SDS011;64072;51.466;7.260;2022-10-18T12:23:02;13.02;;;7.18;;
75494;SDS011;64072;51.466;7.260;2022-10-18T12:25:30;9.80;;;6.30;;
75494;SDS011;64072;51.466;7.260;2022-10-18T12:30:41;9.25;;;6.60;;
75494;SDS011;64072;51.466;7.260;2022-10-18T12:33:29;8.82;;;5.65;;
75494;SDS011;64072;51.466;7.260;2022-10-18T12:36:05;8.93;;;5.63;;
75494;SDS011;64072;51.466;7.260;2022-10-18T12:38:35;9.00;;;6.07;;
75494;SDS011;64072;51.466;7.260;2022-10-18T12:41:05;8.10;;;5.25;;
75494;SDS011;64072;51.466;7.260;2022-10-18T12:43:32;8.98;;;5.25;;
75494;SDS011;64072;51.466;7.260;2022-10-18T12:46:05;9.48;;;5.57;;
75494;SDS011;64072;51.466;7.260;2022-10-18T12:48:39;8.00;;;4.95;;
75494;SDS011;64072;51.466;7.260;2022-10-18T12:53:39;9.77;;;5.28;;
75494;SDS011;64072;51.466;7.260;2022-10-18T12:56:39;8.98;;;5.32;;
75494;SDS011;64072;51.466;7.260;2022-10-18T13:09:28;7.78;;;4.60;;
75494;SDS011;64072;51.466;7.260;2022-10-18T13:14:52;7.75;;;4.30;;
75494;SDS011;64072;51.466;7.260;2022-10-18T13:31:19;6.50;;;4.00;;
75494;SDS011;64072;51.466;7.260;2022-10-18T13:33:46;7.13;;;3.97;;
75494;SDS011;64072;51.466;7.260;2022-10-18T13:38:42;8.00;;;3.53;;
75494;SDS011;64072;51.466;7.260;2022-10-18T13:41:21;6.43;;;3.22;;
75494;SDS011;64072;51.466;7.260;2022-10-18T13:46:21;6.70;;;3.20;;
75494;SDS011;64072;51.466;7.260;2022-10-18T13:48:49;7.88;;;3.22;;
75494;SDS011;64072;51.466;7.260;2022-10-18T13:51:22;7.55;;;3.50;;
75494;SDS011;64072;51.466;7.260;2022-10-18T14:08:10;6.72;;;2.90;;
75494;SDS011;64072;51.466;7.260;2022-10-18T14:10:49;7.28;;;2.75;;
75494;SDS011;64072;51.466;7.260;2022-10-18T14:13:22;5.57;;;2.70;;
75494;SDS011;64072;51.466;7.260;2022-10-18T14:15:51;5.82;;;2.70;;
75494;SDS011;64072;51.466;7.260;2022-10-18T14:18:23;6.07;;;2.55;;
75494;SDS011;64072;51.466;7.260;2022-10-18T14:20:52;5.07;;;2.28;;
75494;SDS011;64072;51.466;7.260;2022-10-18T14:23:22;5.38;;;2.20;;
75494;SDS011;64072;51.466;7.260;2022-10-18T14:26:06;5.50;;;2.40;;
75494;SDS011;64072;51.466;7.260;2022-10-18T14:31:03;5.40;;;2.40;;
75494;SDS011;64072;51.466;7.260;2022-10-18T14:33:36;4.55;;;2.05;;
75494;SDS011;64072;51.466;7.260;2022-10-18T14:36:35;5.70;;;2.42;;
75494;SDS011;64072;51.466;7.260;2022-10-18T14:41:31;4.63;;;2.13;;
75494;SDS011;64072;51.466;7.260;2022-10-18T14:44:10;6.05;;;2.25;;
75494;SDS011;64072;51.466;7.260;2022-10-18T14:46:40;5.78;;;2.30;;
75494;SDS011;64072;51.466;7.260;2022-10-18T14:49:13;5.18;;;2.33;;
75494;SDS011;64072;51.466;7.260;2022-10-18T14:51:40;4.70;;;2.00;;
75494;SDS011;64072;51.466;7.260;2022-10-18T14:54:15;4.30;;;1.90;;
75494;SDS011;64072;51.466;7.260;2022-10-18T14:56:43;5.30;;;1.88;;
75494;SDS011;64072;51.466;7.260;2022-10-18T14:59:11;4.38;;;2.00;;
75494;SDS011;64072;51.466;7.260;2022-10-18T15:02:00;5.25;;;2.10;;
75494;SDS011;64072;51.466;7.260;2022-10-18T15:32:01;3.95;;;1.52;;
75494;SDS011;64072;51.466;7.260;2022-10-18T15:34:31;4.72;;;1.73;;
75494;SDS011;64072;51.466;7.260;2022-10-18T15:36:57;5.03;;;1.67;;
75494;SDS011;64072;51.466;7.260;2022-10-18T15:39:24;4.93;;;1.70;;
75494;SDS011;64072;51.466;7.260;2022-10-18T15:55:54;4.37;;;1.33;;
75494;SDS011;64072;51.466;7.260;2022-10-18T16:01:24;3.80;;;1.27;;
75494;SDS011;64072;51.466;7.260;2022-10-18T16:03:59;4.13;;;1.52;;
75494;SDS011;64072;51.466;7.260;2022-10-18T16:06:29;3.35;;;1.38;;
75494;SDS011;64072;51.466;7.260;2022-10-18T16:08:54;3.88;;;1.40;;
75494;SDS011;64072;51.466;7.260;2022-10-18T16:11:22;3.53;;;1.40;;
75494;SDS011;64072;51.466;7.260;2022-10-18T16:13:48;3.88;;;1.35;;
75494;SDS011;64072;51.466;7.260;2022-10-18T16:16:15;3.58;;;1.40;;
75494;SDS011;64072;51.466;7.260;2022-10-18T16:18:46;4.18;;;1.60;;
75494;SDS011;64072;51.466;7.260;2022-10-18T16:21:20;4.72;;;1.45;;
75494;SDS011;64072;51.466;7.260;2022-10-18T16:23:50;4.10;;;1.60;;
75494;SDS011;64072;51.466;7.260;2022-10-18T16:26:17;4.55;;;1.50;;
75494;SDS011;64072;51.466;7.260;2022-10-18T16:28:44;3.65;;;1.52;;
75494;SDS011;64072;51.466;7.260;2022-10-18T16:31:20;5.30;;;1.40;;
75494;SDS011;64072;51.466;7.260;2022-10-18T16:33:47;3.33;;;1.40;;
75494;SDS011;64072;51.466;7.260;2022-10-18T16:36:14;4.35;;;1.65;;
75494;SDS011;64072;51.466;7.260;2022-10-18T16:38:41;4.75;;;1.70;;
75494;SDS011;64072;51.466;7.260;2022-10-18T16:41:07;4.10;;;1.60;;
75494;SDS011;64072;51.466;7.260;2022-10-18T16:43:33;3.83;;;1.40;;
75494;SDS011;64072;51.466;7.260;2022-10-18T16:45:59;4.28;;;1.50;;
75494;SDS011;64072;51.466;7.260;2022-10-18T16:48:25;5.20;;;1.90;;
75494;SDS011;64072;51.466;7.260;2022-10-18T16:50:52;4.28;;;1.60;;
75494;SDS011;64072;51.466;7.260;2022-10-18T16:53:18;3.70;;;1.40;;
75494;SDS011;64072;51.466;7.260;2022-10-18T16:55:48;4.63;;;1.65;;
75494;SDS011;64072;51.466;7.260;2022-10-18T16:58:17;4.80;;;1.40;;
75494;SDS011;64072;51.466;7.260;2022-10-18T17:00:43;3.85;;;1.48;;
75494;SDS011;64072;51.466;7.260;2022-10-18T17:03:10;4.43;;;1.48;;
75494;SDS011;64072;51.466;7.260;2022-10-18T17:05:37;4.90;;;1.80;;
75494;SDS011;64072;51.466;7.260;2022-10-18T17:08:03;4.30;;;1.60;;
75494;SDS011;64072;51.466;7.260;2022-10-18T17:10:29;4.70;;;1.52;;
75494;SDS011;64072;51.466;7.260;2022-10-18T17:12:54;5.53;;;1.67;;
75494;SDS011;64072;51.466;7.260;2022-10-18T17:15:20;4.00;;;1.50;;
75494;SDS011;64072;51.466;7.260;2022-10-18T17:17:45;3.80;;;1.60;;
75494;SDS011;64072;51.466;7.260;2022-10-18T17:20:18;4.63;;;1.63;;
75494;SDS011;64072;51.466;7.260;2022-10-18T17:22:47;4.35;;;1.52;;
75494;SDS011;64072;51.466;7.260;2022-10-18T17:25:13;4.90;;;1.73;;
75494;SDS011;64072;51.466;7.260;2022-10-18T17:27:39;5.75;;;1.73;;
75494;SDS011;64072;51.466;7.260;2022-10-18T17:30:04;3.80;;;1.50;;
75494;SDS011;64072;51.466;7.260;2022-10-18T17:32:30;4.18;;;1.42;;
75494;SDS011;64072;51.466;7.260;2022-10-18T17:34:56;4.00;;;1.60;;
75494;SDS011;64072;51.466;7.260;2022-10-18T17:37:21;4.25;;;1.63;;
75494;SDS011;64072;51.466;7.260;2022-10-18T17:39:47;4.20;;;1.58;;
75494;SDS011;64072;51.466;7.260;2022-10-18T17:42:12;4.80;;;1.65;;
75494;SDS011;64072;51.466;7.260;2022-10-18T17:44:38;4.00;;;1.52;;
75494;SDS011;64072;51.466;7.260;2022-10-18T17:47:03;4.70;;;1.50;;
75494;SDS011;64072;51.466;7.260;2022-10-18T17:49:29;4.40;;;1.50;;
75494;SDS011;64072;51.466;7.260;2022-10-18T17:51:54;5.63;;;1.60;;
75494;SDS011;64072;51.466;7.260;2022-10-18T17:54:20;3.92;;;1.50;;
75494;SDS011;64072;51.466;7.260;2022-10-18T17:56:45;4.40;;;1.50;;
75494;SDS011;64072;51.466;7.260;2022-10-18T17:59:11;4.53;;;1.60;;
75494;SDS011;64072;51.466;7.260;2022-10-18T18:01:39;3.80;;;1.60;;
75494;SDS011;64072;51.466;7.260;2022-10-18T18:04:05;4.38;;;1.70;;
75494;SDS011;64072;51.466;7.260;2022-10-18T18:06:32;4.72;;;1.67;;
75494;SDS011;64072;51.466;7.260;2022-10-18T18:09:01;5.18;;;1.70;;